Latest Weather Observations for Swanbourne

IDW60801

Issued at 6:05 pm WST Wednesday 1 October 2014 (issued every 30 minutes, with the page automatically refreshed every 10 minutes)

About weather observations | Map of weather stations | Latest weather observations for WA | Other Formats
Station Details ID: 009215 Name: SWANBOURNE Lat: -31.96 Lon: 115.76 Height: 40.96 m
Data from the previous 72 hours. | See also: Recent months at Swanbourne
Date/Time
WST
Temp
°C
App
Temp
°C
Dew
Point
Rel
Hum
%
Delta-T
°C
Wind Press
QNH
hPa
Press
MSL
hPa
Rain
since 9 am
mm
Dir
 
Spd
km/h
Gust
km/h
Spd
kts
Gust
kts
01/06:00pm 26.6 23.6 7.6 30 10.2 E 13 20 7 11 - - 0.0
01/05:30pm 26.9 23.7 8.4 31 10.0 E 15 22 8 12 - - 0.0
01/05:00pm 27.3 24.9 10.1 34 9.6 E 13 24 7 13 - - 0.0
01/04:30pm 27.2 24.3 9.5 33 9.8 E 15 22 8 12 - - 0.0
01/04:00pm 27.4 25.2 9.3 32 10.0 ENE 11 20 6 11 - - 0.0
01/03:30pm 28.0 25.9 11.1 35 9.6 E 13 22 7 12 - - 0.0
01/03:00pm 27.3 25.4 11.7 37 9.0 ESE 13 22 7 12 - - 0.0
01/02:30pm 28.2 25.5 11.7 36 9.5 E 17 26 9 14 - - 0.0
01/02:00pm 26.7 24.5 10.8 37 9.0 E 13 24 7 13 - - 0.0
01/01:30pm 28.4 25.8 10.6 33 10.1 E 15 28 8 15 - - 0.0
01/01:00pm 27.9 24.2 10.1 33 10.0 E 20 30 11 16 - - 0.0
01/12:30pm 27.9 24.1 11.0 35 9.6 ENE 22 33 12 18 - - 0.0
01/12:00pm 26.0 22.9 11.7 41 8.2 E 19 32 10 17 - - 0.0
01/11:30am 25.3 21.6 10.0 38 8.5 E 20 33 11 18 - - 0.0
01/11:00am 25.2 21.4 9.9 38 8.4 E 20 33 11 18 - - 0.0
01/10:30am 25.0 20.7 9.3 37 8.6 ENE 22 35 12 19 - - 0.0
01/10:00am 24.3 19.1 8.7 37 8.4 E 26 39 14 21 - - 0.0
01/09:30am 23.0 18.2 9.0 41 7.5 E 24 35 13 19 - - 0.0
01/09:00am 21.6 16.5 9.2 45 6.6 E 26 39 14 21 - - 0.0
01/08:30am 20.2 15.6 9.5 50 5.7 E 24 41 13 22 - - 0.0
01/08:00am 18.5 13.9 9.6 56 4.7 E 24 33 13 18 - - 0.0
01/07:30am 17.4 12.7 9.1 58 4.3 E 24 37 13 20 - - 0.0
01/07:00am 16.6 11.8 8.8 60 4.0 E 24 41 13 22 - - 0.0
01/06:30am 15.4 11.0 8.9 65 3.3 E 22 35 12 19 - - 0.0
01/06:00am 14.9 10.5 9.1 68 3.0 E 22 32 12 17 - - 0.0
01/05:30am 14.7 10.8 9.3 70 2.8 E 20 30 11 16 - - 0.0
01/05:00am 14.8 10.9 9.4 70 2.8 E 20 26 11 14 - - 0.0
01/04:30am 14.6 10.9 9.4 71 2.7 E 19 26 10 14 - - 0.0
01/04:00am 14.4 11.4 9.2 71 2.7 E 15 22 8 12 - - 0.0
01/03:30am 15.7 12.0 9.4 66 3.3 E 19 24 10 13 - - 0.0
01/03:00am 15.7 12.4 9.4 66 3.3 ESE 17 24 9 13 - - 0.0
01/02:30am 15.8 12.5 9.7 67 3.2 ESE 17 26 9 14 - - 0.0
01/02:00am 15.5 12.6 9.6 68 3.1 ESE 15 19 8 10 - - 0.0
01/01:30am 15.4 12.5 9.7 69 3.0 ESE 15 20 8 11 - - 0.0
01/01:00am 14.6 11.8 10.0 74 2.4 ESE 15 20 8 11 - - 0.0
01/12:30am 14.2 12.2 10.2 77 2.1 ESE 11 15 6 8 - - 0.0
01/12:00am 14.8 12.9 10.4 75 2.3 ESE 11 17 6 9 - - 0.0
 
Date/Time
WST
Temp
°C
App
Temp
°C
Dew
Point
Rel
Hum
%
Delta-T
°C
Wind Press
QNH
hPa
Press
MSL
hPa
Rain
since 9 am
mm
Dir
 
Spd
km/h
Gust
km/h
Spd
kts
Gust
kts
30/11:30pm 15.1 12.9 10.7 75 2.3 SE 13 19 7 10 - - 0.0
30/11:00pm 15.2 13.3 10.6 74 2.4 SE 11 17 6 9 - - 0.0
30/10:30pm 15.3 13.2 11.3 77 2.1 SE 13 17 7 9 - - 0.0
30/10:00pm 15.2 13.6 11.6 79 1.9 SE 11 15 6 8 - - 0.0
30/09:30pm 15.3 13.8 11.9 80 1.8 SE 11 13 6 7 - - 0.0
30/09:00pm 15.4 14.4 12.3 82 1.7 SE 9 11 5 6 - - 0.0
30/08:30pm 15.6 15.2 13.1 85 1.4 SE 7 11 4 6 - - 0.0
30/08:00pm 15.4 14.9 12.7 84 1.5 SSE 7 9 4 5 - - 0.0
30/07:30pm 15.5 15.1 12.4 82 1.7 S 6 7 3 4 - - 0.0
30/07:00pm 16.2 15.3 12.6 79 2.0 S 9 11 5 6 - - 0.0
30/06:30pm 16.7 15.8 12.7 77 2.2 S 9 15 5 8 - - 0.0
30/06:00pm 17.6 16.0 12.7 73 2.7 S 13 20 7 11 - - 0.0
30/05:30pm 18.4 16.0 12.8 70 3.1 S 17 22 9 12 - - 0.0
30/05:00pm 18.8 15.9 12.8 68 3.4 SSW 20 30 11 16 - - 0.0
30/04:30pm 19.3 16.6 12.8 66 3.7 SSW 19 30 10 16 - - 0.0
30/04:00pm 19.8 16.8 12.6 63 4.1 SSW 20 30 11 16 - - 0.0
30/03:30pm 19.8 16.3 12.3 62 4.2 SSW 22 30 12 16 - - 0.0
30/03:00pm 19.8 16.6 11.8 60 4.4 SSW 20 30 11 16 - - 0.0
30/02:30pm 19.8 16.4 11.3 58 4.7 SSW 20 30 11 16 - - 0.0
30/02:00pm 20.2 17.0 11.1 56 5.0 SSW 19 30 10 16 - - 0.0
30/01:30pm 20.5 17.7 11.2 55 5.1 SW 17 24 9 13 - - 0.0
30/01:00pm 19.5 15.9 10.0 54 5.1 WSW 19 22 10 12 - - 0.0
30/12:30pm 22.3 20.7 8.8 42 7.2 SSE 7 13 4 7 - - 0.0
30/12:00pm 19.7 18.1 8.1 47 6.0 SW 6 13 3 7 - - 0.0
30/11:30am 20.6 19.2 9.5 49 5.9 ENE 7 17 4 9 - - 0.0
30/11:00am 19.6 17.4 8.0 47 6.0 E 9 17 5 9 - - 0.0
30/10:30am 18.9 16.8 8.3 50 5.5 E 9 19 5 10 - - 0.0
30/10:00am 18.6 15.9 9.1 54 5.0 ESE 13 22 7 12 - - 0.0
30/09:30am 17.6 15.0 9.2 58 4.4 SE 13 24 7 13 - - 0.0
30/09:00am 17.6 15.8 9.5 59 4.3 ESE 9 17 5 9 - - 0.6
30/08:30am 16.6 14.0 9.3 62 3.8 ESE 13 22 7 12 - - 0.6
30/08:00am 15.7 13.9 9.6 67 3.2 ESE 9 17 5 9 - - 0.6
30/07:30am 15.2 14.1 10.6 74 2.4 ESE 7 15 4 8 - - 0.6
30/07:00am 14.2 12.9 10.0 76 2.2 ESE 7 13 4 7 - - 0.6
30/06:30am 13.7 12.3 9.7 77 2.1 ESE 7 11 4 6 - - 0.6
30/06:00am 13.7 12.3 9.7 77 2.1 SE 7 11 4 6 - - 0.6
30/05:30am 13.8 12.6 10.2 79 1.9 SE 7 13 4 7 - - 0.6
30/05:00am 13.9 13.0 10.7 81 1.7 ESE 6 7 3 4 - - 0.6
30/04:30am 14.0 12.8 10.2 78 2.0 E 7 9 4 5 - - 0.6
30/04:00am 13.9 12.6 9.9 77 2.1 E 7 9 4 5 - - 0.6
30/03:30am 13.9 12.6 9.9 77 2.1 E 7 9 4 5 - - 0.6
30/03:00am 13.8 12.5 9.3 74 2.3 E 6 7 3 4 - - 0.6
30/02:30am 14.5 13.1 9.5 72 2.6 ESE 7 9 4 5 - - 0.6
30/02:00am 14.5 13.2 9.3 71 2.7 ESE 6 7 3 4 - - 0.6
30/01:30am 14.6 13.2 9.4 71 2.7 ESE 7 9 4 5 - - 0.6
30/01:00am 14.4 12.9 9.0 70 2.7 SSE 7 9 4 5 - - 0.6
30/12:30am 14.1 12.4 8.5 69 2.8 S 7 11 4 6 - - 0.6
30/12:00am 13.9 12.1 8.1 68 2.9 S 7 11 4 6 - - 0.6
 
Date/Time
WST
Temp
°C
App
Temp
°C
Dew
Point
Rel
Hum
%
Delta-T
°C
Wind Press
QNH
hPa
Press
MSL
hPa
Rain
since 9 am
mm
Dir
 
Spd
km/h
Gust
km/h
Spd
kts
Gust
kts
29/11:30pm 14.4 12.3 8.4 67 3.0 S 9 17 5 9 - - 0.6
29/11:00pm 15.4 13.5 8.9 65 3.3 S 9 15 5 8 - - 0.6
29/10:30pm 16.2 14.0 9.2 63 3.6 S 11 19 6 10 - - 0.6
29/10:00pm 16.5 13.6 9.7 64 3.6 SSW 15 24 8 13 - - 0.6
29/09:30pm 16.4 13.3 8.9 61 3.9 SSW 15 20 8 11 - - 0.6
29/09:00pm 16.7 13.0 9.4 62 3.8 SSW 19 26 10 14 - - 0.6
29/08:30pm 16.4 14.2 10.9 70 2.9 S 13 20 7 11 - - 0.6
29/08:00pm 16.4 14.1 11.6 73 2.6 S 15 24 8 13 - - 0.6
29/07:30pm 15.8 14.1 11.2 74 2.5 S 11 17 6 9 - - 0.6
29/07:00pm 16.3 13.8 11.0 71 2.8 SSW 15 22 8 12 - - 0.6
29/06:30pm 16.3 13.8 11.2 72 2.7 SSW 15 22 8 12 - - 0.6
29/06:00pm 16.2 14.4 12.2 77 2.2 SSW 13 20 7 11 - - 0.6
29/05:30pm 16.0 14.8 12.9 82 1.7 SSW 11 17 6 9 - - 0.6
29/05:00pm 17.2 15.4 14.5 84 1.6 SSW 17 28 9 15 - - 0.6
29/04:30pm 17.6 16.2 13.3 76 2.4 SW 13 20 7 11 - - 0.4
29/04:00pm 17.9 16.4 13.2 74 2.6 SW 13 19 7 10 - - 0.4
29/03:30pm 18.3 16.3 12.7 70 3.1 WSW 15 20 8 11 - - 0.4
29/03:00pm 19.3 16.9 13.7 70 3.2 SW 19 24 10 13 - - 0.4
29/02:30pm 19.2 17.7 13.2 68 3.4 WSW 13 19 7 10 - - 0.4
29/02:00pm 20.1 18.6 14.2 69 3.4 SW 15 20 8 11 - - 0.4
29/01:30pm 18.9 16.9 14.0 73 2.8 SW 17 24 9 13 - - 0.4
29/01:00pm 21.4 19.4 13.8 62 4.4 W 17 24 9 13 - - 0.4
29/12:30pm 21.2 19.2 13.9 63 4.2 WSW 17 24 9 13 - - 0.4
29/12:00pm 20.3 17.6 13.5 65 3.9 WSW 20 28 11 15 - - 0.4
29/11:30am 20.8 18.3 13.5 63 4.2 W 19 28 10 15 - - 0.4
29/11:00am 20.3 17.7 13.3 64 4.0 W 19 28 10 15 - - 0.4
29/10:30am 19.3 18.4 15.8 80 2.1 WNW 15 20 8 11 - - 0.4
29/10:00am 17.6 16.8 15.0 85 1.5 W 13 22 7 12 - - 0.4
29/09:30am 19.5 18.9 15.6 78 2.3 NW 13 20 7 11 - - 0.0
29/09:00am 16.9 15.1 14.4 85 1.4 NW 17 28 9 15 - - 0.8
29/08:30am 16.9 14.5 13.8 82 1.8 WNW 19 24 10 13 - - 0.6
29/08:00am 17.2 16.7 15.0 87 1.3 WNW 11 17 6 9 - - 0.6
29/07:30am 15.6 14.3 13.6 88 1.1 WNW 13 22 7 12 - - 0.6
29/07:00am 16.8 15.4 13.5 81 1.9 W 13 19 7 10 - - 0.6
29/06:30am 15.6 14.3 12.4 81 1.8 W 11 17 6 9 - - 0.6
29/06:00am 15.8 12.7 13.5 86 1.3 W 22 30 12 16 - - 0.6
29/05:30am 15.7 13.5 13.2 85 1.4 W 17 24 9 13 - - 0.6
29/05:00am 15.0 12.1 13.9 93 0.6 WNW 22 35 12 19 - - 0.6
29/04:30am 15.2 12.2 13.6 90 0.9 NW 22 37 12 20 - - 0.6
29/04:00am 15.3 13.1 13.3 88 1.1 NW 17 24 9 13 - - 0.4
29/03:30am 15.6 13.0 13.8 89 1.0 W 20 32 11 17 - - 0.4
29/03:00am 16.5 13.3 13.0 80 2.0 W 22 33 12 18 - - 0.0
29/02:30am 16.4 13.1 11.6 73 2.6 WNW 20 28 11 15 - - 0.0
29/02:00am 16.4 13.4 12.0 75 2.4 WNW 19 26 10 14 - - 0.0
29/01:30am 16.5 13.5 11.9 74 2.5 WNW 19 30 10 16 - - 0.0
29/01:00am 16.3 13.2 12.1 76 2.3 WNW 20 28 11 15 - - 0.0
29/12:30am 16.5 13.9 12.1 75 2.4 WNW 17 26 9 14 - - 0.0
29/12:00am 16.3 13.3 11.9 75 2.4 WNW 19 30 10 16 - - 0.0
 
Date/Time
WST
Temp
°C
App
Temp
°C
Dew
Point
Rel
Hum
%
Delta-T
°C
Wind Press
QNH
hPa
Press
MSL
hPa
Rain
since 9 am
mm
Dir
 
Spd
km/h
Gust
km/h
Spd
kts
Gust
kts
28/11:30pm 16.3 13.0 11.7 74 2.5 WNW 20 28 11 15 - - 0.0
28/11:00pm 16.3 13.7 11.9 75 2.4 WNW 17 24 9 13 - - 0.0
28/10:30pm 16.4 13.4 11.8 74 2.5 WNW 19 28 10 15 - - 0.0
28/10:00pm 16.3 13.7 12.1 76 2.3 WNW 17 20 9 11 - - 0.0
28/09:30pm 16.2 13.5 11.8 75 2.4 NW 17 24 9 13 - - 0.0
28/09:00pm 16.3 13.2 11.7 74 2.5 WNW 19 26 10 14 - - 0.0
28/08:30pm 16.4 13.7 11.8 74 2.5 WNW 17 28 9 15 - - 0.0
28/08:00pm 16.5 14.1 12.5 77 2.2 NW 17 24 9 13 - - 0.0
28/07:30pm 16.6 13.7 12.2 75 2.4 NW 19 26 10 14 - - 0.0
28/07:00pm 16.4 12.6 11.1 71 2.8 NW 22 32 12 17 - - 0.0
28/06:30pm 16.4 13.0 11.3 72 2.8 WNW 20 30 11 16 - - 0.0

Other Formats:

Comma delimited format used in spreadsheet applications
http://www.bom.gov.au/fwo/IDW60801/IDW60801.94614.axf

JavaScript Object Notation format (JSON) in row-major order
http://www.bom.gov.au/fwo/IDW60801/IDW60801.94614.json